createdAt,value
2022-11-04T00:01:59.061Z,97613.81
2022-11-04T00:05:01.192Z,97619.84
2022-11-04T00:08:21.578Z,97622.00
2022-11-04T00:11:41.742Z,97629.16
2022-11-04T00:14:43.536Z,97644.56
2022-11-04T00:17:45.073Z,97646.69
2022-11-04T00:21:05.176Z,97644.00
2022-11-04T00:24:25.511Z,97647.06
2022-11-04T00:27:45.744Z,97654.50
2022-11-04T00:30:47.296Z,97658.59
2022-11-04T00:33:49.533Z,97655.31
2022-11-04T00:36:51.052Z,97668.56
2022-11-04T00:39:52.708Z,97661.69
2022-11-04T00:42:54.234Z,97670.84
2022-11-04T00:45:55.797Z,97665.78
2022-11-04T00:48:57.644Z,97670.25
2022-11-04T00:51:59.223Z,97682.31
2022-11-04T00:55:00.732Z,97681.03
2022-11-04T00:58:02.339Z,97690.09
2022-11-04T01:01:07.554Z,97685.13
2022-11-04T01:04:09.271Z,97681.97
2022-11-04T01:07:10.791Z,97692.91
2022-11-04T01:10:12.368Z,97689.25
2022-11-04T01:13:14.301Z,97697.00
2022-11-04T01:16:15.916Z,97695.97
2022-11-04T01:19:17.577Z,97698.84
2022-11-04T01:22:19.151Z,97703.69
2022-11-04T01:25:20.773Z,97707.47
2022-11-04T01:28:22.338Z,97704.50
2022-11-04T01:31:25.696Z,97708.13
2022-11-04T01:34:27.286Z,97714.72
2022-11-04T01:37:28.824Z,97725.69
2022-11-04T01:40:30.397Z,97732.38
2022-11-04T01:43:50.889Z,97728.13
2022-11-04T01:46:52.611Z,97728.47
2022-11-04T01:49:55.339Z,97734.28
2022-11-04T01:53:13.231Z,97739.06
2022-11-04T01:56:14.826Z,97742.22
2022-11-04T01:59:18.411Z,97743.84
2022-11-04T02:02:20.294Z,97749.94
2022-11-04T02:05:21.932Z,63510.31
2022-11-04T02:08:23.492Z,63510.31
2022-11-04T02:11:43.803Z,63510.31
2022-11-04T02:14:45.881Z,63510.31
2022-11-04T02:18:03.792Z,63510.31
2022-11-04T02:21:05.351Z,63510.31
2022-11-04T02:24:19.143Z,63510.31
2022-11-04T02:27:23.754Z,63510.31
2022-11-04T02:30:25.291Z,63510.31
2022-11-04T02:33:32.328Z,63510.31
2022-11-04T02:37:00.170Z,63510.31
2022-11-04T02:40:05.995Z,63510.31
2022-11-04T02:43:07.840Z,63510.31
2022-11-04T02:46:21.366Z,63510.31
2022-11-04T02:49:40.690Z,63510.31
2022-11-04T02:52:53.837Z,63510.31
2022-11-04T02:55:55.857Z,63510.31
2022-11-04T02:58:58.351Z,63510.31
2022-11-04T03:02:00.046Z,63510.31
2022-11-04T03:05:01.658Z,63510.31
2022-11-04T03:08:11.173Z,63510.31
2022-11-04T03:11:14.600Z,63510.31
2022-11-04T03:14:17.222Z,63510.31
2022-11-04T03:17:20.613Z,63510.31
2022-11-04T03:20:23.095Z,63510.31
2022-11-04T03:23:24.615Z,63510.31
2022-11-04T03:26:30.343Z,63510.31
2022-11-04T03:29:50.733Z,63510.31
2022-11-04T03:32:52.249Z,63510.31
2022-11-04T03:38:55.230Z,97845.84
2022-11-04T03:41:57.362Z,97845.84
2022-11-04T03:44:58.850Z,97863.81
2022-11-04T03:48:00.398Z,97853.78
2022-11-04T03:51:01.997Z,97865.91
2022-11-04T03:54:03.566Z,97857.47
2022-11-04T03:57:05.102Z,97871.47
2022-11-04T04:00:10.520Z,97873.53
2022-11-04T04:03:18.968Z,97877.22
2022-11-04T04:06:21.067Z,97878.03
2022-11-04T04:09:22.635Z,97879.31
2022-11-04T04:12:28.031Z,97888.53
2022-11-04T04:15:31.248Z,97899.38
2022-11-04T04:18:58.600Z,97891.94
2022-11-04T04:22:05.321Z,97905.47
2022-11-04T04:25:25.505Z,97902.59
2022-11-04T04:28:27.127Z,97913.16
2022-11-04T04:31:47.380Z,97910.00
2022-11-04T04:34:48.896Z,97926.13
2022-11-04T04:37:50.463Z,97934.31
2022-11-04T04:41:12.363Z,97938.84
2022-11-04T04:44:34.089Z,97946.25
2022-11-04T04:47:45.692Z,97958.44
2022-11-04T04:50:48.661Z,97958.44
2022-11-04T04:53:50.227Z,97970.84
2022-11-04T04:56:51.784Z,97974.00
2022-11-04T04:59:53.351Z,97991.72
2022-11-04T05:02:55.006Z,97983.53
2022-11-04T05:05:59.100Z,97995.13
2022-11-04T05:09:00.626Z,97991.19
2022-11-04T05:12:02.218Z,97996.44
2022-11-04T05:15:03.888Z,98003.31
2022-11-04T05:18:05.585Z,98009.38
2022-11-04T05:21:11.518Z,98009.66
2022-11-04T05:24:13.111Z,98011.50
2022-11-04T05:27:14.618Z,98017.31
2022-11-04T05:30:16.292Z,98031.28
2022-11-04T05:33:17.887Z,98038.38
2022-11-04T05:36:19.411Z,98037.81
2022-11-04T05:39:20.966Z,98040.97
2022-11-04T05:42:22.641Z,98033.81
2022-11-04T05:45:24.188Z,98045.94
2022-11-04T05:48:25.825Z,98038.59
2022-11-04T05:51:27.913Z,98049.38
2022-11-04T05:54:29.790Z,98061.00
2022-11-04T05:57:31.617Z,98072.31
2022-11-04T06:00:33.175Z,98065.69
2022-11-04T06:03:34.715Z,98057.22
2022-11-04T06:06:36.453Z,98066.44
2022-11-04T06:09:41.120Z,98062.47
2022-11-04T06:12:42.742Z,63510.31
2022-11-04T06:15:44.344Z,63510.31
2022-11-04T06:18:45.944Z,63510.31
2022-11-04T06:21:47.458Z,63510.31
2022-11-04T06:24:49.073Z,63510.31
2022-11-04T06:27:50.623Z,63510.31
2022-11-04T06:30:52.159Z,63510.31
2022-11-04T06:33:53.719Z,63510.31
2022-11-04T06:36:55.348Z,63510.31
2022-11-04T06:39:56.859Z,63510.31
2022-11-04T06:42:58.555Z,63510.31
2022-11-04T06:46:00.770Z,63510.31
2022-11-04T06:49:02.568Z,63510.31
2022-11-04T06:52:04.172Z,63510.31
2022-11-04T06:55:06.147Z,63510.31
2022-11-04T06:58:07.696Z,63510.31
2022-11-04T07:01:14.812Z,63510.31
2022-11-04T07:04:19.355Z,63510.31
2022-11-04T07:07:20.903Z,63510.31
2022-11-04T07:10:22.533Z,63510.31
2022-11-04T07:13:24.068Z,63510.31
2022-11-04T07:16:25.620Z,63510.31
2022-11-04T07:19:27.228Z,63510.31
2022-11-04T07:22:28.824Z,63510.31
2022-11-04T07:25:30.362Z,63510.31
2022-11-04T07:28:31.921Z,63510.31
2022-11-04T07:31:33.605Z,63510.31
2022-11-04T07:34:35.155Z,63510.31
2022-11-04T07:37:36.708Z,63510.31
2022-11-04T07:40:39.469Z,63510.31
2022-11-04T07:43:41.110Z,63510.31
2022-11-04T07:46:42.804Z,63510.31
2022-11-04T07:49:44.587Z,63510.31
2022-11-04T07:52:46.259Z,63510.31
2022-11-04T07:55:50.998Z,63510.31
2022-11-04T07:58:52.634Z,63510.31
2022-11-04T08:01:54.316Z,63510.31
2022-11-04T08:04:55.975Z,63510.31
2022-11-04T08:07:57.923Z,63510.31
2022-11-04T08:11:00.545Z,63510.31
2022-11-04T08:14:05.146Z,63510.31
2022-11-04T08:17:06.728Z,63510.31
2022-11-04T08:20:09.711Z,63510.31
2022-11-04T08:23:12.401Z,63510.31
2022-11-04T08:26:17.932Z,63510.31
2022-11-04T08:29:19.636Z,63510.31
2022-11-04T08:32:21.147Z,63510.31
2022-11-04T08:35:22.652Z,63510.31
2022-11-04T08:38:24.373Z,63510.31
2022-11-04T08:41:29.395Z,63510.31
2022-11-04T08:44:30.937Z,98193.63
2022-11-04T08:47:32.497Z,98184.34
2022-11-04T08:50:34.077Z,98181.97
2022-11-04T08:53:35.742Z,98203.38
2022-11-04T08:56:38.131Z,98192.75
2022-11-04T08:59:39.663Z,98192.16
2022-11-04T09:02:41.202Z,98186.31
2022-11-04T09:05:47.669Z,98190.50
2022-11-04T09:08:49.552Z,98194.16
2022-11-04T09:11:51.133Z,98156.66
2022-11-04T09:14:52.752Z,98186.19
2022-11-04T09:17:54.341Z,98190.28
2022-11-04T09:20:55.921Z,98215.22
2022-11-04T09:23:57.472Z,98209.91
2022-11-04T09:26:59.929Z,98213.31
2022-11-04T09:30:01.674Z,98219.59
2022-11-04T09:33:03.484Z,98236.16
2022-11-04T09:36:05.208Z,98229.81
2022-11-04T09:39:06.764Z,98228.94
2022-11-04T09:42:14.482Z,98230.44
2022-11-04T09:45:22.912Z,98228.59
2022-11-04T09:48:28.550Z,98243.94
2022-11-04T09:51:53.264Z,98215.09
2022-11-04T09:54:58.216Z,98223.13
2022-11-04T09:58:00.005Z,98208.75
2022-11-04T10:01:15.931Z,98237.59
2022-11-04T10:04:26.916Z,98239.66
2022-11-04T10:07:28.493Z,98248.94
2022-11-04T10:10:36.166Z,98250.19
2022-11-04T10:13:47.158Z,98228.78
2022-11-04T10:16:48.812Z,98259.69
2022-11-04T10:20:13.125Z,98258.94
2022-11-04T10:23:22.056Z,98260.75
2022-11-04T10:26:36.127Z,98268.59
2022-11-04T10:29:48.216Z,98278.91
2022-11-04T10:33:08.834Z,98256.25
2022-11-04T10:36:11.183Z,98253.75
2022-11-04T10:39:18.507Z,98251.97
2022-11-04T10:42:22.362Z,98260.13
2022-11-04T10:45:26.498Z,98254.13
2022-11-04T10:48:32.597Z,98281.72
2022-11-04T10:51:34.128Z,98257.81
2022-11-04T10:54:40.455Z,98269.38
2022-11-04T10:57:41.959Z,98283.59
2022-11-04T11:00:43.574Z,98289.16
2022-11-04T11:03:45.191Z,98269.16
2022-11-04T11:06:47.084Z,98292.16
2022-11-04T11:09:53.996Z,98278.63
2022-11-04T11:12:59.260Z,98287.53
2022-11-04T11:16:11.841Z,98290.16
2022-11-04T11:19:15.575Z,98283.97
2022-11-04T11:22:43.443Z,98277.31
2022-11-04T11:25:49.455Z,98270.09
2022-11-04T11:28:58.465Z,98264.94
2022-11-04T11:32:03.476Z,98271.88
2022-11-04T11:35:10.735Z,98281.44
2022-11-04T11:38:18.992Z,98269.91
2022-11-04T11:41:25.279Z,98279.31
2022-11-04T11:44:33.123Z,98261.78
2022-11-04T11:47:42.310Z,98274.19
2022-11-04T11:50:52.592Z,98277.22
2022-11-04T11:54:12.972Z,98265.28
2022-11-04T11:57:25.514Z,98222.28
2022-11-04T12:10:49.841Z,98268.72
2022-11-04T12:14:00.136Z,98285.91
2022-11-04T12:17:40.180Z,98301.16
2022-11-04T12:20:47.450Z,98269.25
2022-11-04T12:23:54.943Z,98253.56
2022-11-04T12:27:02.549Z,98295.00
2022-11-04T12:30:14.463Z,98322.25
2022-11-04T12:33:34.715Z,98294.13
2022-11-04T12:36:44.129Z,98290.50
2022-11-04T12:40:01.206Z,98271.69
2022-11-04T12:43:09.000Z,98281.91
2022-11-04T12:46:17.818Z,98298.66
2022-11-04T12:49:19.418Z,98296.97
2022-11-04T12:52:20.960Z,98322.56
2022-11-04T12:55:22.576Z,98319.88
2022-11-04T12:58:26.828Z,98296.75
2022-11-04T13:01:33.304Z,98298.78
2022-11-04T13:04:36.614Z,98305.91
2022-11-04T13:07:58.407Z,98311.78
2022-11-04T13:11:23.229Z,98316.94
2022-11-04T13:14:29.493Z,98342.31
2022-11-04T13:17:32.846Z,98320.50
2022-11-04T13:20:45.529Z,98303.09
2022-11-04T13:23:47.029Z,98318.44
2022-11-04T13:26:48.891Z,98323.38
2022-11-04T13:29:50.921Z,98302.50
2022-11-04T13:32:52.417Z,98313.59
2022-11-04T13:35:53.911Z,98300.38
2022-11-04T13:38:56.633Z,98307.53
2022-11-04T13:42:04.445Z,98301.19
2022-11-04T13:45:14.116Z,98266.09
2022-11-04T13:48:16.526Z,98305.00
2022-11-04T13:51:19.275Z,98306.53
2022-11-04T13:54:30.832Z,98273.47
2022-11-04T13:57:34.904Z,98288.16
2022-11-04T14:00:37.589Z,98305.13
2022-11-04T14:03:40.725Z,98288.03
2022-11-04T14:06:51.580Z,98296.53
2022-11-04T14:09:54.135Z,98288.91
2022-11-04T14:12:56.412Z,98277.81
2022-11-04T14:16:01.131Z,98279.50
2022-11-04T14:19:22.745Z,98305.00
2022-11-04T14:22:31.939Z,98303.44
2022-11-04T14:25:35.297Z,98304.63
2022-11-04T14:28:37.263Z,98308.19
2022-11-04T14:31:39.711Z,98302.50
2022-11-04T14:34:42.885Z,98325.66
2022-11-04T14:37:44.463Z,98303.56
2022-11-04T14:40:50.891Z,98310.13
2022-11-04T14:43:52.411Z,98304.00
2022-11-04T14:46:55.784Z,98308.66
2022-11-04T14:49:57.344Z,98300.66
2022-11-04T14:52:59.316Z,98325.03
2022-11-04T14:56:04.990Z,98318.38
2022-11-04T14:59:07.039Z,98335.09
2022-11-04T15:02:35.546Z,98324.16
2022-11-04T15:05:37.653Z,98345.94
2022-11-04T15:08:41.952Z,98325.16
2022-11-04T15:12:01.924Z,98332.06
2022-11-04T15:15:20.303Z,98325.44
2022-11-04T15:18:28.105Z,98344.56
2022-11-04T15:21:29.962Z,98369.44
2022-11-04T15:24:31.705Z,98350.19
2022-11-04T15:27:34.621Z,98356.06
2022-11-04T15:30:36.179Z,98346.50
2022-11-04T15:33:39.305Z,98361.03
2022-11-04T15:36:41.735Z,98350.03
2022-11-04T15:39:44.091Z,98365.06
2022-11-04T15:42:45.784Z,98362.94
2022-11-04T15:45:47.321Z,98364.44
2022-11-04T15:49:01.995Z,98376.34
2022-11-04T15:52:07.231Z,98360.94
2022-11-04T15:55:18.868Z,98370.06
2022-11-04T15:58:20.503Z,98370.75
2022-11-04T16:01:22.179Z,98359.91
2022-11-04T16:04:24.497Z,98358.00
2022-11-04T16:07:26.393Z,98364.31
2022-11-04T16:10:35.037Z,98351.38
2022-11-04T16:13:36.536Z,98351.75
2022-11-04T16:16:38.200Z,98364.94
2022-11-04T16:19:39.827Z,98374.03
2022-11-04T16:22:41.750Z,98366.13
2022-11-04T16:25:43.769Z,98375.16
2022-11-04T16:28:46.000Z,98374.66
2022-11-04T16:32:04.248Z,98380.00
2022-11-04T16:35:08.715Z,98383.44
2022-11-04T16:38:10.689Z,98385.06
2022-11-04T16:41:12.501Z,98378.44
2022-11-04T16:44:22.035Z,98390.63
2022-11-04T16:47:26.012Z,98377.16
2022-11-04T16:50:27.996Z,98378.75
2022-11-04T16:53:29.917Z,98388.25
2022-11-04T16:56:31.841Z,98385.13
2022-11-04T16:59:33.673Z,98379.53
2022-11-04T17:02:38.125Z,98393.84
2022-11-04T17:05:39.894Z,98388.81
2022-11-04T17:08:44.484Z,98389.06
2022-11-04T17:11:46.229Z,98387.47
2022-11-04T17:14:48.141Z,98392.00
2022-11-04T17:17:49.864Z,98388.53
2022-11-04T17:20:53.433Z,98392.28
2022-11-04T17:23:56.570Z,98396.44
2022-11-04T17:26:58.586Z,98395.97
2022-11-04T17:30:00.436Z,98416.13
2022-11-04T17:33:06.539Z,98405.53
2022-11-04T17:36:09.545Z,98410.75
2022-11-04T17:39:12.901Z,98402.28
2022-11-04T17:42:32.924Z,98413.41
2022-11-04T17:45:34.768Z,98420.88
2022-11-04T17:48:36.429Z,98423.00
2022-11-04T17:51:39.324Z,98420.88
2022-11-04T17:54:40.871Z,98419.03
2022-11-04T17:57:42.410Z,98431.50
2022-11-04T18:00:44.079Z,98416.41
2022-11-04T18:03:45.647Z,98436.81
2022-11-04T18:06:47.317Z,98435.50
2022-11-04T18:09:49.025Z,98428.63
2022-11-04T18:12:51.329Z,98454.88
2022-11-04T18:15:53.483Z,98437.91
2022-11-04T18:18:55.055Z,98438.97
2022-11-04T18:21:56.873Z,98435.78
2022-11-04T18:24:58.525Z,98449.56
2022-11-04T18:28:00.480Z,98433.09
2022-11-04T18:31:03.741Z,98431.53
2022-11-04T18:34:07.559Z,98442.41
2022-11-04T18:37:09.127Z,98437.38
2022-11-04T18:40:10.924Z,98454.38
2022-11-04T18:43:12.710Z,98449.06
2022-11-04T18:46:15.339Z,98464.44
2022-11-04T18:49:17.393Z,98468.91
2022-11-04T18:52:19.036Z,98459.09
2022-11-04T18:55:20.571Z,98462.88
2022-11-04T18:58:22.567Z,98474.78
2022-11-04T19:01:25.742Z,98466.53
2022-11-04T19:04:27.548Z,98466.53
2022-11-04T19:07:29.071Z,98470.50
2022-11-04T19:10:30.619Z,98474.78
2022-11-04T19:13:32.197Z,98474.78
2022-11-04T19:16:34.073Z,98464.44
2022-11-04T19:19:35.630Z,98475.00
2022-11-04T19:22:39.399Z,98477.66
2022-11-04T19:25:41.668Z,98487.19
2022-11-04T19:28:48.176Z,98480.28
2022-11-04T19:31:50.573Z,98481.34
2022-11-04T19:34:52.129Z,98477.09
2022-11-04T19:37:53.846Z,98484.53
2022-11-04T19:40:55.595Z,98492.47
2022-11-04T19:43:57.418Z,98487.69
2022-11-04T19:46:58.929Z,98477.91
2022-11-04T19:50:00.423Z,98486.63
2022-11-04T19:53:02.174Z,98473.94
2022-11-04T19:56:03.974Z,98474.19
2022-11-04T19:59:06.645Z,98479.47
2022-11-04T20:02:09.984Z,98487.19
2022-11-04T20:05:11.881Z,98490.91
2022-11-04T20:08:13.822Z,98490.34
2022-11-04T20:11:16.179Z,98497.25
2022-11-04T20:14:18.103Z,98496.97
2022-11-04T20:17:19.845Z,98491.41
2022-11-04T20:20:21.362Z,98508.09
2022-11-04T20:23:22.964Z,98509.38
2022-11-04T20:26:24.723Z,98507.78
2022-11-04T20:29:26.254Z,98506.69
2022-11-04T20:32:27.796Z,98505.84
2022-11-04T20:35:29.448Z,98502.41
2022-11-04T20:38:31.003Z,98491.75
2022-11-04T20:41:32.932Z,98487.28
2022-11-04T20:44:34.500Z,98482.50
2022-11-04T20:47:37.148Z,98484.88
2022-11-04T20:50:38.715Z,98486.22
2022-11-04T20:53:40.421Z,98485.69
2022-11-04T20:56:42.663Z,98480.38
2022-11-04T20:59:44.200Z,98485.38
2022-11-04T21:02:45.869Z,98497.25
2022-11-04T21:05:47.511Z,98490.91
2022-11-04T21:08:49.071Z,98484.59
2022-11-04T21:11:51.328Z,98482.50
2022-11-04T21:14:52.935Z,98486.72
2022-11-04T21:17:54.636Z,98485.88
2022-11-04T21:20:57.264Z,98485.34
2022-11-04T21:23:59.573Z,98488.56
2022-11-04T21:27:01.901Z,98495.47
2022-11-04T21:30:03.676Z,98506.84
2022-11-04T21:33:05.380Z,98511.84
2022-11-04T21:36:07.852Z,98509.19
2022-11-04T21:39:11.088Z,98502.09
2022-11-04T21:42:12.843Z,98520.34
2022-11-04T21:45:14.739Z,98529.34
2022-11-04T21:48:16.279Z,98539.94
2022-11-04T21:51:19.298Z,98537.38
2022-11-04T21:54:20.865Z,98546.41
2022-11-04T21:57:22.572Z,98540.59
2022-11-04T22:00:24.248Z,98538.94
2022-11-04T22:03:27.732Z,98536.28
2022-11-04T22:06:34.619Z,98531.50
2022-11-04T22:09:37.193Z,98520.91
2022-11-04T22:12:38.755Z,98507.63
2022-11-04T22:15:58.242Z,98516.41
2022-11-04T22:19:00.558Z,98524.63
2022-11-04T22:22:02.075Z,98523.00
2022-11-04T22:25:03.782Z,98520.88
2022-11-04T22:28:05.384Z,98525.06
2022-11-04T22:31:11.541Z,98535.91
2022-11-04T22:34:13.104Z,98532.69
2022-11-04T22:37:14.782Z,98520.44
2022-11-04T22:40:16.283Z,98510.34
2022-11-04T22:43:17.854Z,98508.19
2022-11-04T22:46:23.667Z,98501.41
2022-11-04T22:49:25.207Z,98496.13
2022-11-04T22:52:26.721Z,98497.72
2022-11-04T22:55:28.278Z,98508.16
2022-11-04T22:58:30.029Z,98509.19
2022-11-04T23:01:33.225Z,98519.16
2022-11-04T23:04:34.835Z,98524.13
2022-11-04T23:07:36.423Z,98522.25
2022-11-04T23:10:56.348Z,98532.50
2022-11-04T23:14:20.631Z,98527.78
2022-11-04T23:17:41.385Z,98523.09
2022-11-04T23:20:42.980Z,98521.16
2022-11-04T23:24:07.884Z,98502.97
2022-11-04T23:27:09.540Z,98510.94
2022-11-04T23:30:26.908Z,98494.56
2022-11-04T23:33:46.945Z,98518.38
2022-11-04T23:37:07.256Z,98509.25
2022-11-04T23:40:09.061Z,98519.91
2022-11-04T23:43:10.796Z,98523.06
2022-11-04T23:46:31.377Z,98515.13
2022-11-04T23:49:51.644Z,98503.69
2022-11-04T23:53:12.295Z,98503.69
2022-11-04T23:56:32.506Z,98495.47
2022-11-04T23:59:52.827Z,98487.75
